Карточка аэропорта URSS

Внимание!
Информация на этой странице в стадии наполнения.
Если вы не увидели какой-то информации, или заметили неточность - пожалуйста сообщите нам!
Спасибо!
Команда RU-STAFF
Название аэропортаСочи
Название аэропорта (англ.)Sochi
Превышение89 ft. (27.1 m.)
Координаты43°26.634', 39°56.55'
Высота перехода13000 ft
Эшелон переходаFL140 (QNH >= 1013); FL150 (QNH 977-1012); FL160 (QNH < 977)
Коды ответчика1060-1077
Зона ОрВДРостов-на-Дону РПИ (URRV)
Данные METARURSS 300030Z 05003MPS 9999 SCT060CB OVC100 20/16 Q1008 R02/010070 R06/010070 NOSIG RMK R06/10004MPS QFE755
Проноз погоды (TAF)URSS 291956Z 2921/3021 05003G08MPS 9999 BKN100 BECMG 2923/2924 BKN040CB OVC100 TEMPO 3000/3007 VRB09G14MPS 0500 +TSRA SQ FEW006 BKN030CB OVC100 FM300700 18004G09MPS 9999 FEW010 SCT030 BKN100 BECMG 3009/3010 28003G09MPS FEW030TCU BECMG 3016/3018 05003G08MPS SCT100
NOTAMshow/hide NOTAM
AWOS   TABLE

Информация о ВПП

ВПП Длина ВПП (м.) Покрытие Курс ВПП Частота ILS
022500Цементобетон22110.5
062890Цементобетон58111.1
202500Цементобетон202 
242890Цементобетон238 

Диспетчерские позиции

Позывной Наименование органа УВД Частота
URSS_APPСочи-Подход124.600
URSS_DELСочи-Деливери132.700
URSS_FM1119.000
URSS_GNDСочи-Руление119.000
URSS_R_APPСочи-Круг119.700
URSS_TWRСочи-Старт121.200



Спутниковое изображение